Terminal Aerodrome Forecast
Issued by NWS Shreveport, LA

Home | Current Version | Previous Version | Text Only | Print | Product List | Glossary On
Versions: 1 2 3 4 5 6 7 8 9 10 11 12 13 14 15
000
FTUS44 KSHV 312355 CCA
TAFGGG
TAF COR
KGGG 312355Z 0100/0124 16004KT P6SM VCTS SCT045CB BKN150 BKN250
      TEMPO 0101/0103 5SM -TSRA BR BKN030CB
     FM010300 VRB03KT P6SM SCT040 BKN120 OVC250
     FM011500 16005KT P6SM SCT015 SCT040 BKN140
     FM011800 16006KT P6SM VCTS BKN040CB=

USA.gov is the U.S. government's official web portal to all federal, state and local government web resources and services.